Chincha Alta, Peru
Current Conditions -  °F | °C
As of 10:00 PM on Monday 22 Dec 2014 (Local Time) from SPSO Reporting Station
Broken Clouds Broken Clouds  
Wind Chill: 68°   Ceiling: 10000
Heat Index: 68°   Visibility: 6mi
Dew Point: 63°   Wind: 17mph
Humidity: 83%   Direction: 220°SW
Pressure: 29.85"   Gusts: NA
Location:  13.42°S, 76.14°W
Report Text: SPSO 230300Z 22015KT 9999 BKN100 20/17 Q1011 RMK PP000
Loading
Personal Weather Stations






























Interactive Weather Map New forecast layout! Learn more

10-Day Weather Forecast

Advertisements
Track Severe Weather on mobile